Time;durP1;ratioP1;P1;durP2;ratioP2;P2;SDS_P1;SDS_P2;PMS_P1;PMS_P2;Temp;Humidity;BMP_temperature;BMP_pressure;BME280_temperature;BME280_humidity;BME280_pressure;Samples;Min_cycle;Max_cycle;Signal;HPM_P1;HPM_P2
2022/06/15 00:01:20;;;;;;;10.18;5.50;;;12.70;99.90;;;;;;5009201;28;20087;-69
2022/06/15 00:03:46;;;;;;;8.63;4.97;;;12.60;99.90;;;;;;5002015;28;20121;-69
2022/06/15 00:06:23;;;;;;;8.93;5.05;;;12.60;99.90;;;;;;5019491;28;20122;-69
2022/06/15 00:08:51;;;;;;;10.77;4.90;;;12.60;99.90;;;;;;5009513;28;20107;-69
2022/06/15 00:11:30;;;;;;;8.43;4.60;;;12.60;99.90;;;;;;5012808;28;20037;-69
2022/06/15 00:13:59;;;;;;;9.68;4.95;;;12.70;99.90;;;;;;5008028;28;20132;-69
2022/06/15 00:16:25;;;;;;;7.00;4.45;;;12.60;99.90;;;;;;5013958;28;20041;-69
2022/06/15 00:18:51;;;;;;;9.65;5.00;;;12.60;99.90;;;;;;5000992;28;20053;-69
2022/06/15 00:21:19;;;;;;;11.25;5.47;;;12.60;99.90;;;;;;5012971;28;20050;-69
2022/06/15 00:23:45;;;;;;;10.75;5.40;;;12.60;99.90;;;;;;5029552;28;20083;-69
2022/06/15 00:26:13;;;;;;;7.68;4.80;;;12.60;99.90;;;;;;5028885;28;20041;-69
2022/06/15 00:28:39;;;;;;;8.07;5.03;;;12.50;99.90;;;;;;5026719;28;20525;-70
2022/06/15 00:31:05;;;;;;;8.55;5.30;;;12.50;99.90;;;;;;5010285;28;20041;-69
2022/06/15 00:33:31;;;;;;;8.63;4.95;;;12.50;99.90;;;;;;5013461;28;20540;-69
2022/06/15 00:36:04;;;;;;;13.68;5.38;;;12.50;99.90;;;;;;5013418;28;20053;-69
2022/06/15 00:38:43;;;;;;;7.20;5.22;;;12.50;99.90;;;;;;5026186;28;20045;-69
2022/06/15 00:41:12;;;;;;;8.52;5.35;;;12.50;99.90;;;;;;5029998;28;20099;-69
2022/06/15 00:43:39;;;;;;;9.38;5.50;;;12.40;99.90;;;;;;5011556;28;20401;-69
2022/06/15 00:46:30;;;;;;;7.07;5.32;;;12.40;99.90;;;;;;5010481;28;20092;-69
2022/06/15 00:49:27;;;;;;;9.07;5.32;;;12.40;99.90;;;;;;5029482;28;20045;-69
2022/06/15 00:52:04;;;;;;;13.38;6.05;;;12.30;99.90;;;;;;5006498;28;20049;-69
2022/06/15 00:54:29;;;;;;;7.90;5.60;;;12.30;99.90;;;;;;5013461;28;20120;-69
2022/06/15 00:56:55;;;;;;;8.82;5.63;;;12.30;99.90;;;;;;4973976;28;1081762;-69
2022/06/15 00:59:38;;;;;;;8.73;5.28;;;12.30;99.90;;;;;;5012191;28;20045;-69
2022/06/15 01:02:04;;;;;;;9.95;5.40;;;12.30;99.90;;;;;;5025370;28;20037;-69
2022/06/15 01:04:43;;;;;;;10.70;5.88;;;12.30;99.90;;;;;;5018182;28;20045;-69
2022/06/15 01:07:33;;;;;;;9.18;5.60;;;12.30;99.90;;;;;;5028456;28;20689;-69
2022/06/15 01:10:12;;;;;;;9.80;5.75;;;12.20;99.90;;;;;;5031765;28;20052;-69
2022/06/15 01:13:04;;;;;;;7.63;5.38;;;12.20;99.90;;;;;;5030302;28;20370;-69
2022/06/15 01:15:33;;;;;;;9.65;5.35;;;12.20;99.90;;;;;;5026839;28;20117;-69
2022/06/15 01:18:27;;;;;;;7.85;5.55;;;12.10;99.90;;;;;;5009475;28;20038;-69
2022/06/15 01:21:08;;;;;;;9.73;5.55;;;12.10;99.90;;;;;;5013042;28;20484;-69
2022/06/15 01:23:42;;;;;;;10.23;5.53;;;12.10;99.90;;;;;;5011631;28;20041;-69
2022/06/15 01:26:28;;;;;;;;;;;12.10;99.90;;;;;;5010770;28;20034;-69
2022/06/15 01:29:02;;;;;;;8.00;5.15;;;12.00;99.90;;;;;;5008651;28;19966;-69
2022/06/15 01:31:41;;;;;;;9.98;6.00;;;12.00;99.90;;;;;;5029745;28;20117;-69
2022/06/15 01:34:29;;;;;;;9.15;5.10;;;12.00;99.90;;;;;;5031730;28;20041;-69
2022/06/15 01:37:14;;;;;;;9.50;5.20;;;12.00;99.90;;;;;;5028435;28;20049;-69
2022/06/15 01:39:58;;;;;;;9.30;5.60;;;12.00;99.90;;;;;;5012497;28;20100;-69
2022/06/15 01:42:31;;;;;;;8.80;5.25;;;11.90;99.90;;;;;;5006598;28;20042;-69
2022/06/15 01:45:07;;;;;;;9.48;5.22;;;11.90;99.90;;;;;;5029692;28;20044;-69
2022/06/15 01:47:34;;;;;;;8.55;5.40;;;11.90;99.90;;;;;;4990477;28;20034;-69
2022/06/15 01:50:12;;;;;;;6.80;5.55;;;11.90;99.90;;;;;;4999382;28;20049;-69
2022/06/15 01:52:53;;;;;;;9.15;5.40;;;11.80;99.90;;;;;;5009882;28;20053;-69
2022/06/15 01:55:37;;;;;;;7.63;4.93;;;11.90;99.90;;;;;;5011223;28;20134;-69
2022/06/15 01:58:07;;;;;;;9.25;5.40;;;11.90;99.90;;;;;;5009584;28;20103;-69
2022/06/15 02:00:34;;;;;;;8.05;5.32;;;11.80;99.90;;;;;;5009642;28;20046;-69
2022/06/15 02:03:14;;;;;;;11.23;5.93;;;11.80;99.90;;;;;;5011318;28;20037;-69
2022/06/15 02:06:14;;;;;;;7.55;5.95;;;11.80;99.90;;;;;;5027856;28;20044;-69
2022/06/15 02:08:52;;;;;;;7.60;4.88;;;11.80;99.90;;;;;;5011966;28;20125;-69
2022/06/15 02:11:23;;;;;;;7.53;4.95;;;11.70;99.90;;;;;;5010643;28;20073;-69
2022/06/15 02:13:58;;;;;;;11.20;5.50;;;11.70;99.90;;;;;;5027010;28;20053;-69
2022/06/15 02:16:35;;;;;;;9.30;5.25;;;11.70;99.90;;;;;;5009468;28;20140;-69
2022/06/15 02:19:06;;;;;;;6.65;5.10;;;11.60;99.90;;;;;;5030029;28;20041;-69
2022/06/15 02:21:33;;;;;;;12.18;5.82;;;11.60;99.90;;;;;;5009861;28;20029;-69
2022/06/15 02:24:01;;;;;;;9.30;5.80;;;11.60;99.90;;;;;;5030082;28;20049;-69
2022/06/15 02:26:33;;;;;;;12.30;6.00;;;11.50;99.90;;;;;;5028559;28;20116;-69
2022/06/15 02:29:12;;;;;;;11.20;6.15;;;11.60;99.90;;;;;;5027585;28;20342;-69
2022/06/15 02:31:38;;;;;;;6.82;5.50;;;11.40;99.90;;;;;;5004379;28;20041;-69
2022/06/15 02:34:04;;;;;;;9.13;5.68;;;11.50;99.90;;;;;;5012620;28;20068;-69
2022/06/15 02:36:34;;;;;;;10.48;5.43;;;11.50;99.90;;;;;;5011742;28;20389;-69
2022/06/15 02:39:02;;;;;;;9.32;5.50;;;11.50;99.90;;;;;;5010098;28;20077;-69
2022/06/15 02:41:28;;;;;;;9.02;5.65;;;11.50;99.90;;;;;;5028942;28;20033;-69
2022/06/15 02:43:57;;;;;;;9.23;5.07;;;11.50;99.90;;;;;;5027644;28;20448;-69
2022/06/15 02:46:25;;;;;;;9.57;5.35;;;11.40;99.90;;;;;;5006542;28;20042;-69
2022/06/15 02:48:52;;;;;;;10.02;6.60;;;11.40;99.90;;;;;;5009769;28;20041;-69
2022/06/15 02:51:41;;;;;;;9.45;6.43;;;11.40;99.90;;;;;;5012996;28;20041;-69
2022/06/15 02:54:18;;;;;;;9.20;6.55;;;11.40;99.90;;;;;;5011520;28;20041;-69
2022/06/15 02:56:44;;;;;;;10.90;6.15;;;11.40;99.90;;;;;;5009016;28;20061;-69
2022/06/15 02:59:10;;;;;;;11.30;6.53;;;11.40;99.90;;;;;;5029065;28;20165;-69
2022/06/15 03:01:35;;;;;;;11.38;6.13;;;11.40;99.90;;;;;;5009200;28;20116;-69
2022/06/15 03:04:01;;;;;;;11.30;5.82;;;11.40;99.90;;;;;;5010913;28;20045;-69
2022/06/15 03:06:27;;;;;;;13.20;6.15;;;11.40;99.90;;;;;;5027271;28;20041;-69
2022/06/15 03:08:55;;;;;;;11.50;6.50;;;11.40;99.90;;;;;;5010170;28;20047;-69
2022/06/15 03:11:24;;;;;;;9.30;6.07;;;11.30;99.90;;;;;;5005174;28;20041;-69
2022/06/15 03:13:50;;;;;;;10.38;6.03;;;11.30;99.90;;;;;;5008583;28;20053;-69
2022/06/15 03:16:16;;;;;;;11.95;6.65;;;11.40;99.90;;;;;;5009198;28;20045;-69
2022/06/15 03:18:42;;;;;;;11.27;6.30;;;11.30;99.90;;;;;;5005941;28;20424;-69
2022/06/15 03:21:08;;;;;;;10.35;6.85;;;11.30;99.90;;;;;;5025945;28;20068;-69
2022/06/15 03:23:34;;;;;;;10.95;6.60;;;11.30;99.90;;;;;;4993193;28;20050;-69
2022/06/15 03:26:01;;;;;;;8.02;6.18;;;11.40;99.90;;;;;;5009087;28;20044;-69
2022/06/15 03:28:30;;;;;;;11.63;6.45;;;11.30;99.90;;;;;;5004660;28;20045;-69
2022/06/15 03:30:57;;;;;;;11.13;6.53;;;11.30;99.90;;;;;;5022734;28;20095;-69
2022/06/15 03:33:23;;;;;;;9.95;6.63;;;11.30;99.90;;;;;;5009230;28;20493;-69
2022/06/15 03:35:49;;;;;;;9.10;6.57;;;11.20;99.90;;;;;;5012288;28;20052;-69
2022/06/15 03:38:15;;;;;;;12.68;7.45;;;11.30;99.90;;;;;;5008944;28;20038;-69
2022/06/15 03:40:44;;;;;;;10.75;6.80;;;11.30;99.90;;;;;;5025907;28;20044;-69
2022/06/15 03:43:10;;;;;;;12.82;6.68;;;11.30;99.90;;;;;;5018658;28;20347;-69
2022/06/15 03:45:37;;;;;;;9.77;6.55;;;11.30;99.90;;;;;;5008024;28;20077;-69
2022/06/15 03:48:03;;;;;;;12.95;7.43;;;11.40;99.90;;;;;;5013503;28;20563;-69
2022/06/15 03:50:32;;;;;;;9.88;6.13;;;11.40;99.90;;;;;;5015684;28;20038;-69
2022/06/15 03:52:59;;;;;;;13.48;6.72;;;11.40;99.90;;;;;;5013972;28;20054;-69
2022/06/15 03:55:25;;;;;;;11.02;7.05;;;11.40;99.90;;;;;;5015906;28;20132;-69
2022/06/15 03:57:51;;;;;;;8.77;7.20;;;11.40;99.90;;;;;;5030348;28;20045;-69
2022/06/15 04:00:19;;;;;;;10.00;6.93;;;11.50;99.90;;;;;;5033234;28;20527;-69
2022/06/15 04:02:45;;;;;;;11.52;6.35;;;11.50;99.90;;;;;;5013767;28;20120;-69
2022/06/15 04:05:33;;;;;;;10.25;6.55;;;11.50;99.90;;;;;;5033309;28;20442;-69
2022/06/15 04:10:43;;;;;;;;;;;11.50;99.90;;;;;;5013491;28;20048;-69
2022/06/15 04:13:09;;;;;;;9.10;6.63;;;11.50;99.90;;;;;;5000414;28;20292;-69
2022/06/15 04:15:35;;;;;;;10.90;7.03;;;11.50;99.90;;;;;;5015648;28;20092;-69
2022/06/15 04:18:01;;;;;;;9.45;6.38;;;11.60;99.90;;;;;;5011286;28;20056;-69
2022/06/15 04:20:33;;;;;;;9.23;6.35;;;11.60;99.90;;;;;;5015625;28;20120;-69
2022/06/15 04:23:01;;;;;;;8.65;6.10;;;11.70;99.90;;;;;;5009711;28;20484;-69
2022/06/15 04:25:29;;;;;;;10.15;6.18;;;11.80;99.90;;;;;;5019234;28;20033;-69
2022/06/15 04:27:55;;;;;;;8.13;6.78;;;11.80;99.90;;;;;;5010580;28;20128;-69
2022/06/15 04:30:20;;;;;;;9.45;6.72;;;12.00;99.90;;;;;;5015121;28;20072;-69
2022/06/15 04:32:48;;;;;;;9.27;6.85;;;12.00;99.90;;;;;;5012137;28;20045;-69
2022/06/15 04:35:14;;;;;;;9.68;6.72;;;12.10;99.90;;;;;;5013329;28;20455;-69
2022/06/15 04:37:39;;;;;;;8.43;6.75;;;12.20;99.90;;;;;;5012754;28;20057;-69
2022/06/15 04:40:06;;;;;;;10.32;6.93;;;12.30;99.90;;;;;;5014818;28;20642;-69
2022/06/15 04:42:32;;;;;;;11.13;6.50;;;12.30;99.90;;;;;;5029476;28;20094;-69
2022/06/15 04:44:58;;;;;;;11.55;6.72;;;12.30;99.90;;;;;;5014901;28;20037;-69
2022/06/15 04:47:23;;;;;;;10.15;6.85;;;12.40;99.90;;;;;;5012824;28;20053;-69
2022/06/15 04:49:49;;;;;;;8.48;6.78;;;12.40;99.90;;;;;;5030328;28;20469;-69
2022/06/15 04:52:15;;;;;;;9.52;6.65;;;12.50;99.90;;;;;;5028135;28;20857;-69
2022/06/15 04:54:40;;;;;;;13.15;7.28;;;12.60;99.90;;;;;;5030989;28;20120;-69
2022/06/15 04:57:06;;;;;;;11.25;7.10;;;12.70;99.90;;;;;;5012796;28;20096;-69
2022/06/15 04:59:32;;;;;;;9.40;6.82;;;12.90;99.90;;;;;;4997751;28;20494;-69
2022/06/15 05:01:58;;;;;;;7.72;5.85;;;13.00;99.90;;;;;;5012225;28;20068;-69
2022/06/15 05:04:25;;;;;;;11.93;6.28;;;13.20;99.90;;;;;;5013406;28;20081;-69
2022/06/15 05:06:51;;;;;;;8.98;6.32;;;13.50;99.90;;;;;;5028997;28;20048;-69
2022/06/15 05:09:17;;;;;;;7.70;5.97;;;14.00;99.90;;;;;;5011599;28;20045;-69
2022/06/15 05:11:43;;;;;;;9.07;6.15;;;14.20;99.90;;;;;;5013536;28;20042;-69
2022/06/15 05:14:09;;;;;;;10.00;6.43;;;14.20;99.90;;;;;;5015053;28;20060;-69
2022/06/15 05:16:36;;;;;;;9.30;6.32;;;14.20;99.90;;;;;;5022661;28;20049;-69
2022/06/15 05:19:02;;;;;;;8.90;6.00;;;14.10;99.90;;;;;;5030194;28;20462;-69
2022/06/15 05:21:29;;;;;;;7.70;5.90;;;14.00;99.90;;;;;;5011796;28;20199;-69
2022/06/15 05:23:55;;;;;;;8.00;6.47;;;13.90;99.90;;;;;;5010610;28;20056;-69
2022/06/15 05:26:24;;;;;;;10.38;6.30;;;13.90;99.90;;;;;;5014510;28;20370;-69
2022/06/15 05:28:51;;;;;;;9.05;6.82;;;13.90;99.90;;;;;;5010558;28;20061;-69
2022/06/15 05:31:20;;;;;;;12.05;6.65;;;13.90;99.90;;;;;;5014680;28;20045;-69
2022/06/15 05:33:47;;;;;;;12.13;7.18;;;13.90;99.90;;;;;;5010074;28;20127;-69
2022/06/15 05:36:16;;;;;;;9.35;6.38;;;14.00;99.90;;;;;;5030059;28;20049;-69
2022/06/15 05:38:42;;;;;;;10.90;7.05;;;14.10;99.90;;;;;;5028038;28;20041;-69
2022/06/15 05:41:08;;;;;;;8.15;5.85;;;14.20;99.90;;;;;;5014253;28;20111;-69
2022/06/15 05:43:35;;;;;;;8.75;5.80;;;14.40;99.90;;;;;;5028537;28;20129;-69
2022/06/15 05:46:18;;;;;;;7.65;5.32;;;14.50;99.90;;;;;;5014718;28;20060;-69
2022/06/15 05:48:44;;;;;;;9.40;6.20;;;14.50;99.90;;;;;;5030505;28;20617;-69
2022/06/15 05:51:10;;;;;;;11.30;6.03;;;14.70;99.90;;;;;;5032544;28;20077;-69
2022/06/15 05:53:35;;;;;;;8.27;5.70;;;14.70;99.90;;;;;;5028215;28;20055;-69
2022/06/15 05:56:01;;;;;;;8.73;5.68;;;14.80;99.90;;;;;;5029389;28;20041;-69
2022/06/15 05:58:27;;;;;;;8.30;5.93;;;14.90;99.90;;;;;;5009839;28;20057;-70
2022/06/15 06:00:52;;;;;;;6.68;5.38;;;15.00;99.90;;;;;;5004270;28;20412;-70
2022/06/15 06:03:18;;;;;;;7.55;4.90;;;15.10;99.90;;;;;;5017917;28;20060;-70
2022/06/15 06:05:44;;;;;;;10.07;4.95;;;15.20;99.90;;;;;;5012677;28;20373;-69
2022/06/15 06:08:12;;;;;;;10.55;4.80;;;15.20;99.90;;;;;;5006825;28;20053;-69
2022/06/15 06:10:38;;;;;;;8.65;4.85;;;15.30;99.90;;;;;;5012858;28;20115;-70
2022/06/15 06:13:03;;;;;;;11.27;5.13;;;15.40;99.90;;;;;;5026229;28;20051;-70
2022/06/15 06:15:30;;;;;;;8.93;4.90;;;15.50;99.90;;;;;;5009984;28;20052;-69
2022/06/15 06:17:55;;;;;;;9.85;5.13;;;15.70;99.90;;;;;;5009607;28;20132;-70
2022/06/15 06:20:21;;;;;;;8.13;4.45;;;15.70;99.90;;;;;;5007899;28;20549;-69
2022/06/15 06:22:47;;;;;;;10.13;4.45;;;15.80;99.90;;;;;;5006973;28;20116;-69
2022/06/15 06:25:13;;;;;;;6.30;4.18;;;15.90;99.90;;;;;;5012798;28;20053;-69
2022/06/15 06:27:38;;;;;;;7.28;3.33;;;16.00;99.90;;;;;;5016929;28;20512;-69
2022/06/15 06:30:05;;;;;;;10.38;3.65;;;16.20;99.90;;;;;;5011640;28;20124;-70
2022/06/15 06:32:30;;;;;;;8.85;4.13;;;16.30;99.90;;;;;;5029354;28;20053;-70
2022/06/15 06:34:56;;;;;;;6.30;3.20;;;16.50;99.90;;;;;;5012883;28;20481;-70
2022/06/15 06:37:23;;;;;;;6.22;3.40;;;16.60;99.90;;;;;;5021041;28;20053;-70
2022/06/15 06:39:53;;;;;;;9.40;3.70;;;16.70;99.90;;;;;;5013658;28;20054;-70
2022/06/15 06:42:19;;;;;;;6.90;3.22;;;16.80;99.90;;;;;;5010395;28;20053;-70
2022/06/15 06:44:45;;;;;;;6.78;3.53;;;16.90;99.90;;;;;;5011314;28;20042;-70
2022/06/15 06:47:10;;;;;;;8.38;3.47;;;17.00;99.90;;;;;;5021444;28;20056;-70
2022/06/15 06:49:36;;;;;;;9.88;2.88;;;17.20;99.90;;;;;;5020710;28;20522;-71
2022/06/15 06:52:03;;;;;;;6.00;2.65;;;17.30;99.90;;;;;;5012298;28;20046;-71
2022/06/15 06:54:29;;;;;;;8.73;2.92;;;17.40;99.90;;;;;;5010356;28;20045;-70
2022/06/15 06:56:55;;;;;;;4.63;2.25;;;17.50;99.90;;;;;;5012394;28;20169;-70
2022/06/15 06:59:20;;;;;;;7.38;2.55;;;17.70;99.90;;;;;;4996894;28;20128;-70
2022/06/15 07:01:47;;;;;;;6.55;2.20;;;17.80;99.90;;;;;;5005273;28;20050;-70
2022/06/15 07:04:14;;;;;;;4.40;1.80;;;17.90;99.90;;;;;;5009457;28;20057;-70
2022/06/15 07:06:40;;;;;;;4.30;1.95;;;18.00;99.90;;;;;;4994321;28;20052;-71
2022/06/15 07:09:06;;;;;;;7.57;2.38;;;18.20;99.90;;;;;;5011544;28;20058;-71
2022/06/15 07:11:32;;;;;;;6.55;1.83;;;18.40;99.90;;;;;;5029202;28;20056;-70
2022/06/15 07:13:59;;;;;;;8.57;2.25;;;18.50;99.90;;;;;;5019357;28;20049;-70
2022/06/15 07:16:24;;;;;;;5.80;1.67;;;18.60;99.90;;;;;;5012628;28;20049;-70
2022/06/15 07:18:50;;;;;;;9.50;2.17;;;18.70;99.90;;;;;;5031073;28;20516;-70
2022/06/15 07:21:19;;;;;;;7.75;2.42;;;18.90;99.90;;;;;;5016074;28;20049;-71
2022/06/15 07:23:48;;;;;;;4.15;1.40;;;19.00;99.90;;;;;;5022958;28;20050;-71
2022/06/15 07:26:18;;;;;;;6.40;1.70;;;19.00;99.90;;;;;;5015769;28;20049;-71
2022/06/15 07:28:43;;;;;;;6.93;1.98;;;19.10;99.90;;;;;;5015092;28;20076;-71
2022/06/15 07:31:17;;;;;;;6.50;1.80;;;19.20;99.50;;;;;;5012540;28;20072;-71
2022/06/15 07:33:43;;;;;;;4.75;1.50;;;19.30;99.90;;;;;;5014679;28;20049;-71
2022/06/15 07:36:09;;;;;;;6.20;1.35;;;19.50;98.90;;;;;;5015830;28;20050;-71
2022/06/15 07:38:35;;;;;;;6.57;1.60;;;19.60;98.90;;;;;;5013145;28;20080;-71
2022/06/15 07:41:02;;;;;;;6.93;1.60;;;19.70;97.30;;;;;;5015039;28;20071;-71
2022/06/15 07:43:28;;;;;;;5.38;1.60;;;19.80;97.80;;;;;;5011207;28;20057;-71
2022/06/15 07:45:54;;;;;;;4.25;1.30;;;19.90;97.00;;;;;;5010280;28;20069;-71
2022/06/15 07:51:04;;;;;;;4.72;1.30;;;20.00;93.60;;;;;;5014688;28;20469;-71
2022/06/15 07:53:29;;;;;;;5.50;1.05;;;20.10;92.60;;;;;;5010829;28;20061;-71
2022/06/15 07:55:56;;;;;;;7.13;1.58;;;20.10;91.70;;;;;;5015116;28;20065;-71
2022/06/15 07:58:22;;;;;;;6.03;1.02;;;20.20;90.10;;;;;;5011400;28;20050;-71
2022/06/15 08:00:50;;;;;;;5.88;2.03;;;20.30;90.90;;;;;;5012976;28;20065;-71
2022/06/15 08:03:17;;;;;;;5.25;1.63;;;20.60;90.60;;;;;;4997547;28;20049;-71
2022/06/15 08:05:48;;;;;;;4.82;0.90;;;20.70;86.80;;;;;;5030814;28;20045;-71
2022/06/15 08:08:18;;;;;;;3.33;1.08;;;20.90;82.20;;;;;;5013437;28;20111;-71
2022/06/15 08:10:45;;;;;;;5.85;1.52;;;20.90;81.60;;;;;;5030919;28;20076;-71
2022/06/15 08:13:12;;;;;;;5.63;1.33;;;21.00;78.20;;;;;;5014961;28;20057;-71
2022/06/15 08:15:38;;;;;;;4.63;1.30;;;21.20;78.30;;;;;;5015010;28;20033;-71
2022/06/15 08:18:15;;;;;;;5.40;1.20;;;21.20;79.70;;;;;;5011695;28;20053;-71
2022/06/15 08:20:56;;;;;;;5.30;1.08;;;21.50;81.90;;;;;;5012855;28;20486;-72
2022/06/15 08:23:25;;;;;;;5.20;0.90;;;21.90;81.10;;;;;;5013004;28;20046;-64
2022/06/15 08:25:57;;;;;;;5.30;1.00;;;22.30;78.00;;;;;;5031450;28;20045;-65
2022/06/15 08:28:28;;;;;;;5.80;1.00;;;22.30;72.80;;;;;;5013387;28;20045;-64
2022/06/15 08:30:54;;;;;;;3.65;0.80;;;22.00;69.60;;;;;;5031474;28;20080;-64
2022/06/15 08:33:19;;;;;;;4.00;0.93;;;21.90;70.10;;;;;;5029563;28;20485;-64
2022/06/15 08:35:47;;;;;;;3.55;0.90;;;21.90;72.00;;;;;;5023367;28;20121;-65
2022/06/15 08:38:15;;;;;;;3.35;0.88;;;22.30;67.70;;;;;;5028534;28;20045;-64
2022/06/15 08:41:03;;;;;;;2.78;0.90;;;22.60;66.60;;;;;;5032203;28;20116;-65
2022/06/15 08:43:47;;;;;;;3.67;1.00;;;23.10;65.10;;;;;;5032056;28;20045;-65
2022/06/15 08:46:28;;;;;;;3.75;0.95;;;23.30;61.80;;;;;;5032410;28;20033;-66
2022/06/15 08:49:31;;;;;;;5.28;1.40;;;23.40;60.60;;;;;;5007613;28;20049;-65
2022/06/15 08:52:01;;;;;;;2.53;0.90;;;23.70;58.80;;;;;;5030575;28;20485;-65
2022/06/15 08:54:34;;;;;;;3.22;1.08;;;23.90;61.10;;;;;;5031081;28;20104;-65
2022/06/15 08:57:17;;;;;;;7.72;1.17;;;24.30;58.90;;;;;;5030246;28;20152;-65
2022/06/15 09:00:02;;;;;;;4.55;1.20;;;24.30;58.70;;;;;;5026940;28;20045;-65
2022/06/15 09:02:33;;;;;;;4.82;0.98;;;24.00;58.50;;;;;;5031331;28;20041;-65
2022/06/15 09:05:22;;;;;;;4.53;0.73;;;23.40;57.50;;;;;;5032182;28;20043;-65
2022/06/15 09:08:37;;;;;;;3.78;0.90;;;23.10;60.20;;;;;;5029418;28;20124;-65
2022/06/15 09:11:53;;;;;;;3.15;0.75;;;23.50;59.20;;;;;;5027758;28;20091;-65
2022/06/15 09:14:50;;;;;;;4.13;0.95;;;23.70;56.00;;;;;;5013547;28;20665;-65
2022/06/15 09:17:21;;;;;;;5.63;0.80;;;24.00;58.70;;;;;;5029385;28;20516;-65
2022/06/15 09:20:11;;;;;;;4.22;1.13;;;24.10;55.90;;;;;;5030493;28;20041;-65
2022/06/15 09:22:43;;;;;;;6.22;0.98;;;24.10;55.70;;;;;;5029036;28;20441;-65
2022/06/15 09:25:35;;;;;;;3.17;1.13;;;24.40;58.90;;;;;;5030831;28;20043;-65
2022/06/15 09:28:20;;;;;;;5.18;0.90;;;24.60;60.90;;;;;;4988906;28;20140;-65
2022/06/15 09:30:46;;;;;;;4.03;1.00;;;24.90;57.80;;;;;;5030761;28;20527;-65
2022/06/15 09:33:32;;;;;;;3.72;1.05;;;25.00;55.20;;;;;;5007381;28;20041;-65
2022/06/15 09:36:16;;;;;;;3.42;0.70;;;25.00;54.40;;;;;;5030255;28;20045;-65
2022/06/15 09:38:43;;;;;;;4.03;0.88;;;24.90;54.20;;;;;;5027501;28;20492;-65
2022/06/15 09:41:23;;;;;;;4.22;0.80;;;24.90;55.70;;;;;;5020694;28;20062;-64
2022/06/15 09:44:27;;;;;;;3.00;0.80;;;24.90;54.90;;;;;;5025470;28;20489;-64
2022/06/15 09:47:07;;;;;;;3.27;1.20;;;24.60;53.80;;;;;;4998461;28;20056;-65
2022/06/15 09:49:39;;;;;;;4.45;0.95;;;24.60;54.80;;;;;;5024971;28;20389;-65
2022/06/15 09:52:29;;;;;;;4.70;1.00;;;24.60;56.00;;;;;;5026941;28;20512;-65
2022/06/15 09:55:31;;;;;;;4.78;0.90;;;24.70;53.80;;;;;;5029756;28;20073;-65
2022/06/15 09:57:58;;;;;;;4.88;1.20;;;24.90;54.90;;;;;;5027080;28;20052;-65
2022/06/15 10:00:24;;;;;;;3.20;0.80;;;25.00;55.10;;;;;;5028490;28;20409;-65
2022/06/15 10:02:57;;;;;;;3.38;1.17;;;25.30;56.50;;;;;;5028044;28;20033;-65
2022/06/15 10:05:33;;;;;;;3.00;0.80;;;25.20;54.40;;;;;;5025389;28;20064;-64
2022/06/15 10:08:03;;;;;;;3.40;1.08;;;24.70;53.70;;;;;;5028815;28;20091;-67
2022/06/15 10:10:34;;;;;;;5.25;1.05;;;24.40;54.80;;;;;;5028211;28;20559;-70
2022/06/15 10:13:11;;;;;;;4.93;1.00;;;24.30;55.40;;;;;;5027614;28;20044;-69
2022/06/15 10:15:39;;;;;;;2.92;1.17;;;24.50;54.40;;;;;;5025616;28;20140;-74
2022/06/15 10:18:25;;;;;;;6.32;1.33;;;24.30;54.90;;;;;;5012085;28;20497;-74
2022/06/15 10:21:14;;;;;;;3.53;1.30;;;24.50;54.00;;;;;;5011871;28;20049;-74
2022/06/15 10:24:02;;;;;;;4.47;1.10;;;24.80;54.60;;;;;;5001353;28;20084;-74
2022/06/15 10:26:40;;;;;;;4.07;0.80;;;25.10;53.90;;;;;;4993039;28;20465;-75
2022/06/15 10:29:15;;;;;;;5.00;0.90;;;25.20;54.40;;;;;;5010866;28;20524;-71
2022/06/15 10:31:44;;;;;;;4.20;1.00;;;25.20;54.50;;;;;;5030706;28;20077;-72
2022/06/15 10:34:20;;;;;;;2.83;0.90;;;25.20;54.20;;;;;;5031891;28;20041;-70
2022/06/15 10:36:55;;;;;;;3.42;0.80;;;25.30;52.30;;;;;;5029477;28;20041;-70
2022/06/15 10:39:27;;;;;;;3.72;0.90;;;25.10;53.90;;;;;;5013431;28;20039;-70
2022/06/15 10:42:05;;;;;;;3.75;1.08;;;25.20;54.00;;;;;;5005133;28;20091;-69
2022/06/15 10:44:50;;;;;;;3.10;1.13;;;25.20;53.20;;;;;;5011879;28;20520;-69
2022/06/15 10:47:30;;;;;;;3.50;1.00;;;25.20;52.90;;;;;;5029692;28;20045;-70
2022/06/15 10:50:00;;;;;;;4.63;1.30;;;25.10;52.90;;;;;;5030740;28;20045;-70
2022/06/15 10:52:29;;;;;;;3.83;1.30;;;25.20;54.00;;;;;;5013865;28;20046;-70
2022/06/15 11:04:15;;;;;;;3.50;0.60;;;25.70;53.40;;;;;;5035170;28;20068;-69
2022/06/15 11:06:52;;;;;;;2.95;1.00;;;26.30;51.50;;;;;;5014493;28;20099;-69
2022/06/15 11:09:26;;;;;;;3.53;1.15;;;26.20;50.90;;;;;;5033456;28;20500;-70
2022/06/15 11:11:53;;;;;;;4.15;0.93;;;26.20;52.20;;;;;;5011358;28;20412;-70
2022/06/15 11:14:33;;;;;;;2.42;0.90;;;26.20;51.00;;;;;;5032246;28;20134;-70
2022/06/15 11:20:41;;;;;;;5.38;1.30;;;26.70;49.70;;;;;;5033697;28;20388;-69
2022/06/15 11:23:46;;;;;;;4.32;1.10;;;26.60;50.60;;;;;;5022910;28;20461;-68
2022/06/15 11:29:36;;;;;;;4.10;0.95;;;26.80;48.00;;;;;;5033013;28;20060;-68
2022/06/15 11:32:24;;;;;;;3.78;0.95;;;26.80;48.70;;;;;;4994973;28;20072;-68
2022/06/15 11:35:00;;;;;;;4.30;1.05;;;27.10;49.90;;;;;;5032157;28;20037;-68
2022/06/15 11:37:47;;;;;;;3.83;0.98;;;26.90;48.00;;;;;;5014881;28;20046;-67
2022/06/15 11:40:40;;;;;;;3.38;1.08;;;26.70;50.00;;;;;;5029946;28;20413;-67
2022/06/15 11:43:36;;;;;;;4.32;1.13;;;26.70;48.60;;;;;;5022469;28;20041;-67
2022/06/15 11:46:15;;;;;;;4.32;1.30;;;26.70;48.10;;;;;;5031171;28;20056;-67
2022/06/15 11:48:45;;;;;;;2.03;0.60;;;26.70;48.60;;;;;;5028748;28;20100;-67
2022/06/15 11:51:26;;;;;;;3.83;0.65;;;26.80;49.40;;;;;;5031653;28;20050;-66
2022/06/15 11:54:10;;;;;;;4.32;1.17;;;26.80;47.10;;;;;;5032001;28;20048;-66
2022/06/15 11:56:43;;;;;;;;;;;26.90;47.90;;;;;;5011592;28;20072;-67
2022/06/15 11:59:25;;;;;;;2.92;0.82;;;26.90;48.50;;;;;;5024616;28;20391;-66
2022/06/15 12:01:59;;;;;;;7.45;4.10;;;27.10;47.60;;;;;;5029725;28;20038;-66
2022/06/15 12:04:56;;;;;;;4.13;0.90;;;27.20;47.40;;;;;;5032770;28;20084;-66
2022/06/15 12:07:38;;;;;;;2.08;0.60;;;27.30;46.50;;;;;;5031360;28;20049;-66
2022/06/15 12:10:29;;;;;;;4.03;0.80;;;27.20;48.80;;;;;;5032664;28;20119;-66
2022/06/15 12:13:07;;;;;;;4.07;0.73;;;27.00;47.70;;;;;;5027286;28;20106;-66
2022/06/15 12:15:41;;;;;;;2.15;0.80;;;26.80;49.10;;;;;;5026329;28;20037;-66
2022/06/15 12:18:31;;;;;;;2.70;0.73;;;26.90;49.00;;;;;;5031007;28;20096;-67
2022/06/15 12:21:34;;;;;;;5.40;0.95;;;26.80;46.70;;;;;;5010678;28;20050;-66
2022/06/15 12:24:20;;;;;;;3.85;0.70;;;26.90;47.40;;;;;;5028641;28;20040;-67
2022/06/15 12:27:07;;;;;;;3.72;1.10;;;26.90;47.90;;;;;;5029137;28;20144;-66
2022/06/15 12:29:51;;;;;;;3.22;1.00;;;27.00;48.80;;;;;;5011761;28;20505;-67
2022/06/15 12:32:34;;;;;;;2.42;0.68;;;27.10;49.10;;;;;;5003875;28;20512;-66
2022/06/15 12:35:15;;;;;;;2.90;0.75;;;26.80;48.10;;;;;;5031313;28;20543;-66
2022/06/15 12:37:47;;;;;;;2.67;0.88;;;25.70;48.50;;;;;;5032277;28;20099;-66
2022/06/15 12:40:22;;;;;;;3.47;1.77;;;24.90;49.40;;;;;;5031827;28;20041;-66
2022/06/15 12:42:54;;;;;;;2.35;0.68;;;24.60;50.60;;;;;;5010996;28;20369;-66
2022/06/15 12:45:33;;;;;;;2.03;0.77;;;24.90;50.60;;;;;;5029286;28;20042;-66
2022/06/15 12:48:03;;;;;;;2.58;0.93;;;25.20;51.50;;;;;;5030265;28;20140;-66
2022/06/15 12:50:41;;;;;;;3.38;1.10;;;25.50;51.60;;;;;;5028452;28;20049;-66
2022/06/15 12:53:12;;;;;;;2.65;0.98;;;25.80;51.50;;;;;;5023945;28;20074;-66
2022/06/15 12:56:01;;;;;;;4.28;1.30;;;25.80;50.00;;;;;;5007423;28;20706;-66
2022/06/15 12:58:52;;;;;;;2.97;0.88;;;25.50;49.90;;;;;;4996241;28;20053;-65
2022/06/15 13:01:31;;;;;;;2.45;0.77;;;25.30;50.20;;;;;;5031853;28;20041;-66
2022/06/15 13:04:15;;;;;;;3.22;0.90;;;25.00;50.70;;;;;;5031621;28;20455;-66
2022/06/15 13:06:43;;;;;;;3.60;0.93;;;24.60;51.90;;;;;;5028202;28;20094;-66
2022/06/15 13:09:14;;;;;;;3.60;0.88;;;24.30;51.80;;;;;;5030366;28;20642;-66
2022/06/15 13:12:05;;;;;;;3.53;1.00;;;24.00;52.70;;;;;;5031733;28;20507;-66
2022/06/15 13:14:42;;;;;;;4.57;0.85;;;24.20;53.50;;;;;;5026235;28;20037;-66
2022/06/15 13:17:16;;;;;;;5.50;1.00;;;24.40;51.50;;;;;;5028612;28;20077;-70
2022/06/15 13:19:49;;;;;;;4.20;0.80;;;24.60;52.00;;;;;;5030085;28;20067;-69
2022/06/15 13:22:19;;;;;;;3.70;0.85;;;24.70;51.60;;;;;;5025273;28;20557;-70
2022/06/15 13:25:09;;;;;;;4.03;1.02;;;24.70;51.30;;;;;;5028228;28;20041;-69
2022/06/15 13:27:38;;;;;;;3.08;1.00;;;24.60;52.70;;;;;;5006302;28;20095;-71
2022/06/15 13:30:24;;;;;;;8.00;3.83;;;24.70;51.80;;;;;;5010249;28;20135;-70
2022/06/15 13:33:05;;;;;;;4.68;1.08;;;24.80;51.80;;;;;;5028233;28;20045;-69
2022/06/15 13:35:34;;;;;;;3.10;0.80;;;24.90;50.10;;;;;;5026728;28;20129;-68
2022/06/15 13:38:27;;;;;;;3.90;0.93;;;24.80;50.80;;;;;;5010721;28;20132;-69